Time,TemperatureF,DewpointF,PressureIn,WindDirection,WindDirectionDegrees,WindSpeedMPH,WindSpeedGustMPH,Humidity,HourlyPrecipIn,Conditions,Clouds,dailyrainin,SoftwareType,DateUTC
2014-01-28 00:14:00,11.8,-2.0,30.02,NNW,331,11.0,18.0,55,0.00,,,0.00,weatherlink.com 1.10,2014-01-28 05:14:00,
2014-01-28 00:29:00,11.4,-2.0,30.02,North,1,6.0,21.0,56,0.00,,,0.00,weatherlink.com 1.10,2014-01-28 05:29:00,
2014-01-28 00:44:00,11.2,-1.0,30.03,North,351,3.0,17.0,57,0.00,,,0.00,weatherlink.com 1.10,2014-01-28 05:44:00,
2014-01-28 00:59:00,11.0,-2.0,30.04,West,264,7.0,12.0,56,0.00,,,0.00,weatherlink.com 1.10,2014-01-28 05:59:00,
2014-01-28 01:14:00,10.6,-3.0,30.04,NW,319,3.0,12.0,54,0.00,,,0.00,weatherlink.com 1.10,2014-01-28 06:14:00,
2014-01-28 01:29:00,10.2,-4.0,30.04,NNW,333,8.0,18.0,53,0.00,,,0.00,weatherlink.com 1.10,2014-01-28 06:29:00,
2014-01-28 01:44:00,10.0,-5.0,30.04,WNW,302,8.0,24.0,50,0.00,,,0.00,weatherlink.com 1.10,2014-01-28 06:44:00,
2014-01-28 01:59:00,9.8,-7.0,30.05,NNW,339,14.0,21.0,47,0.00,,,0.00,weatherlink.com 1.10,2014-01-28 06:59:00,
2014-01-28 02:14:00,9.7,-7.0,30.05,NNW,335,11.0,21.0,48,0.00,,,0.00,weatherlink.com 1.10,2014-01-28 07:14:00,
2014-01-28 02:29:00,9.4,-7.0,30.05,NNW,336,7.0,21.0,48,0.00,,,0.00,weatherlink.com 1.10,2014-01-28 07:29:00,
2014-01-28 02:44:00,9.4,-6.0,30.06,NW,323,5.0,21.0,50,0.00,,,0.00,weatherlink.com 1.10,2014-01-28 07:44:00,
2014-01-28 02:59:00,9.1,-6.0,30.05,NNW,342,19.0,20.0,51,0.00,,,0.00,weatherlink.com 1.10,2014-01-28 07:59:00,
2014-01-28 03:15:00,9.2,-5.0,30.04,NNW,332,25.0,25.0,52,0.00,,,0.00,weatherlink.com 1.10,2014-01-28 08:15:00,
2014-01-28 03:30:00,9.1,-5.0,30.05,NW,323,20.0,24.0,53,0.00,,,0.00,weatherlink.com 1.10,2014-01-28 08:30:00,
2014-01-28 03:45:00,8.9,-4.0,30.06,NNW,347,16.0,27.0,55,0.00,,,0.00,weatherlink.com 1.10,2014-01-28 08:45:00,
2014-01-28 04:00:00,9.0,-4.0,30.06,WNW,291,14.0,23.0,55,0.00,,,0.00,weatherlink.com 1.10,2014-01-28 09:00:00,
2014-01-28 04:15:00,9.2,-3.0,30.07,NNW,345,11.0,23.0,57,0.00,,,0.00,weatherlink.com 1.10,2014-01-28 09:15:00,
2014-01-28 04:30:00,9.0,-4.0,30.08,NNW,330,9.0,19.0,57,0.00,,,0.00,weatherlink.com 1.10,2014-01-28 09:30:00,
2014-01-28 04:45:00,9.2,-3.0,30.09,WNW,301,11.0,19.0,57,0.00,,,0.00,weatherlink.com 1.10,2014-01-28 09:45:00,
2014-01-28 05:00:00,9.1,-3.0,30.09,NW,306,6.0,20.0,57,0.00,,,0.00,weatherlink.com 1.10,2014-01-28 10:00:00,
2014-01-28 05:15:00,9.2,-3.0,30.11,NNW,327,8.0,19.0,57,0.00,,,0.00,weatherlink.com 1.10,2014-01-28 10:15:00,
2014-01-28 05:30:00,9.3,-3.0,30.11,NW,311,11.0,23.0,59,0.00,,,0.00,weatherlink.com 1.10,2014-01-28 10:30:00,
2014-01-28 05:45:00,8.4,2.0,30.11,NW,316,6.0,20.0,76,0.00,,,0.00,weatherlink.com 1.10,2014-01-28 10:45:00,
2014-01-28 06:00:00,8.1,3.0,30.11,West,276,14.0,15.0,81,0.00,,,0.00,weatherlink.com 1.10,2014-01-28 11:00:00,
2014-01-28 06:15:00,8.0,4.0,30.12,NW,326,4.0,21.0,83,0.00,,,0.00,weatherlink.com 1.10,2014-01-28 11:15:00,
2014-01-28 06:30:00,7.4,3.0,30.14,North,352,6.0,24.0,82,0.00,,,0.00,weatherlink.com 1.10,2014-01-28 11:30:00,
2014-01-28 06:46:00,7.2,2.0,30.14,NNW,335,4.0,16.0,80,0.00,,,0.00,weatherlink.com 1.10,2014-01-28 11:46:00,
2014-01-28 07:01:00,7.4,2.0,30.16,North,1,9.0,15.0,77,0.00,,,0.00,weatherlink.com 1.10,2014-01-28 12:01:00,
2014-01-28 07:16:00,7.7,2.0,30.17,NNW,330,7.0,19.0,76,0.00,,,0.00,weatherlink.com 1.10,2014-01-28 12:16:00,
2014-01-28 07:31:00,8.0,2.0,30.16,NNW,332,6.0,14.0,75,0.00,,,0.00,weatherlink.com 1.10,2014-01-28 12:31:00,
2014-01-28 07:46:00,8.4,2.0,30.17,WNW,298,8.0,13.0,75,0.00,,,0.00,weatherlink.com 1.10,2014-01-28 12:46:00,
2014-01-28 08:02:00,8.7,1.0,30.17,NNE,20,3.0,11.0,72,0.00,,,0.00,weatherlink.com 1.10,2014-01-28 13:02:00,
2014-01-28 08:16:00,8.9,1.0,30.18,NNW,333,3.0,8.0,71,0.00,,,0.00,weatherlink.com 1.10,2014-01-28 13:16:00,
2014-01-28 08:31:00,9.1,3.0,30.19,NNW,335,0.0,7.0,75,0.00,,,0.00,weatherlink.com 1.10,2014-01-28 13:31:00,
2014-01-28 08:46:00,9.4,3.0,30.20,NNW,328,3.0,5.0,75,0.00,,,0.00,weatherlink.com 1.10,2014-01-28 13:46:00,
2014-01-28 09:01:00,9.9,4.0,30.21,NW,307,0.0,6.0,75,0.00,,,0.00,weatherlink.com 1.10,2014-01-28 14:01:00,
2014-01-28 09:16:00,10.7,5.0,30.22,NW,318,0.0,2.0,77,0.00,,,0.00,weatherlink.com 1.10,2014-01-28 14:16:00,
2014-01-28 09:31:00,10.8,5.0,30.22,North,5,1.0,5.0,77,0.00,,,0.00,weatherlink.com 1.10,2014-01-28 14:31:00,
2014-01-28 09:46:00,10.6,5.0,30.23,WNW,302,2.0,5.0,79,0.00,,,0.00,weatherlink.com 1.10,2014-01-28 14:46:00,
2014-01-28 10:02:00,11.0,6.0,30.23,NW,323,0.0,4.0,81,0.00,,,0.00,weatherlink.com 1.10,2014-01-28 15:02:00,
2014-01-28 10:17:00,12.2,8.0,30.23,SSE,148,0.0,3.0,84,0.00,,,0.00,weatherlink.com 1.10,2014-01-28 15:17:00,
2014-01-28 10:32:00,13.3,10.0,30.25,SW,221,0.0,3.0,86,0.00,,,0.00,weatherlink.com 1.10,2014-01-28 15:32:00,
2014-01-28 10:47:00,14.2,11.0,30.25,SW,217,0.0,3.0,86,0.00,,,0.00,weatherlink.com 1.10,2014-01-28 15:47:00,
2014-01-28 11:02:00,13.7,10.0,30.25,SW,215,1.0,2.0,85,0.00,,,0.00,weatherlink.com 1.10,2014-01-28 16:02:00,
2014-01-28 11:17:00,13.1,10.0,30.25,South,169,0.0,2.0,86,0.00,,,0.00,weatherlink.com 1.10,2014-01-28 16:17:00,
2014-01-28 11:32:00,12.5,9.0,30.25,SSE,160,2.0,3.0,86,0.00,,,0.00,weatherlink.com 1.10,2014-01-28 16:32:00,
2014-01-28 11:47:00,12.0,9.0,30.25,SE,129,1.0,3.0,87,0.00,,,0.00,weatherlink.com 1.10,2014-01-28 16:47:00,
2014-01-28 12:02:00,11.2,8.0,30.25,SE,133,2.0,4.0,87,0.00,,,0.00,weatherlink.com 1.10,2014-01-28 17:02:00,
2014-01-28 12:17:00,11.7,9.0,30.24,SE,146,2.0,3.0,87,0.00,,,0.00,weatherlink.com 1.10,2014-01-28 17:17:00,
2014-01-28 12:32:00,12.1,9.0,30.23,WSW,253,0.0,3.0,86,0.00,,,0.00,weatherlink.com 1.10,2014-01-28 17:32:00,
2014-01-28 12:47:00,12.3,9.0,30.23,SE,145,1.0,3.0,86,0.00,,,0.00,weatherlink.com 1.10,2014-01-28 17:47:00,
2014-01-28 13:02:00,11.4,8.0,30.23,ESE,119,1.0,2.0,86,0.00,,,0.00,weatherlink.com 1.10,2014-01-28 18:02:00,
2014-01-28 13:17:00,11.4,8.0,30.22,South,173,0.0,2.0,87,0.00,,,0.00,weatherlink.com 1.10,2014-01-28 18:17:00,
2014-01-28 13:33:00,12.0,8.0,30.22,SSW,203,0.0,1.0,85,0.00,,,0.00,weatherlink.com 1.10,2014-01-28 18:33:00,
2014-01-28 13:48:00,12.9,9.0,30.21,West,281,0.0,1.0,84,0.00,,,0.00,weatherlink.com 1.10,2014-01-28 18:48:00,
2014-01-28 14:03:00,13.0,9.0,30.21,SW,217,0.0,2.0,83,0.00,,,0.00,weatherlink.com 1.10,2014-01-28 19:03:00,
2014-01-28 14:18:00,12.8,9.0,30.20,WSW,248,0.0,3.0,83,0.00,,,0.00,weatherlink.com 1.10,2014-01-28 19:18:00,
2014-01-28 14:33:00,12.8,9.0,30.20,SE,129,0.0,1.0,85,0.00,,,0.00,weatherlink.com 1.10,2014-01-28 19:33:00,
2014-01-28 14:48:00,12.9,9.0,30.20,West,267,0.0,2.0,85,0.00,,,0.00,weatherlink.com 1.10,2014-01-28 19:48:00,
2014-01-28 15:03:00,12.7,9.0,30.20,SW,228,0.0,2.0,86,0.00,,,0.00,weatherlink.com 1.10,2014-01-28 20:03:00,
2014-01-28 15:18:00,12.3,9.0,30.20,SSW,211,0.0,1.0,85,0.00,,,0.00,weatherlink.com 1.10,2014-01-28 20:18:00,
2014-01-28 15:33:00,12.0,9.0,30.20,WSW,250,0.0,1.0,86,0.00,,,0.00,weatherlink.com 1.10,2014-01-28 20:33:00,
2014-01-28 15:48:00,12.1,9.0,30.20,SW,228,0.0,1.0,86,0.00,,,0.00,weatherlink.com 1.10,2014-01-28 20:48:00,
2014-01-28 16:18:00,13.6,10.0,30.20,South,169,0.0,1.0,85,0.00,,,0.00,weatherlink.com 1.10,2014-01-28 21:18:00,
2014-01-28 16:33:00,13.3,10.0,30.21,West,279,0.0,1.0,86,0.00,,,0.00,weatherlink.com 1.10,2014-01-28 21:33:00,
2014-01-28 16:49:00,12.0,9.0,30.21,ESE,122,0.0,1.0,86,0.00,,,0.00,weatherlink.com 1.10,2014-01-28 21:49:00,
2014-01-28 17:04:00,11.4,8.0,30.20,WNW,285,0.0,1.0,87,0.00,,,0.00,weatherlink.com 1.10,2014-01-28 22:04:00,
2014-01-28 17:19:00,11.0,8.0,30.21,SW,226,0.0,1.0,88,0.00,,,0.00,weatherlink.com 1.10,2014-01-28 22:19:00,
2014-01-28 17:34:00,10.5,8.0,30.21,South,171,0.0,1.0,89,0.00,,,0.00,weatherlink.com 1.10,2014-01-28 22:34:00,
2014-01-28 17:49:00,10.2,8.0,30.22,SE,145,0.0,0.0,89,0.00,,,0.00,weatherlink.com 1.10,2014-01-28 22:49:00,
2014-01-28 18:04:00,9.9,8.0,30.22,SSE,168,0.0,0.0,90,0.00,,,0.00,weatherlink.com 1.10,2014-01-28 23:04:00,
2014-01-28 18:19:00,9.9,8.0,30.21,SSE,165,0.0,1.0,90,0.00,,,0.00,weatherlink.com 1.10,2014-01-28 23:19:00,
2014-01-28 18:35:00,10.0,8.0,30.22,NNW,328,0.0,1.0,90,0.00,,,0.00,weatherlink.com 1.10,2014-01-28 23:35:00,
2014-01-28 18:49:00,9.9,8.0,30.21,South,187,0.0,1.0,90,0.00,,,0.00,weatherlink.com 1.10,2014-01-28 23:49:00,
2014-01-28 19:04:00,9.7,7.0,30.22,NNW,341,1.0,3.0,90,0.00,,,0.00,weatherlink.com 1.10,2014-01-29 00:04:00,
2014-01-28 19:19:00,9.8,8.0,30.22,NNW,331,1.0,4.0,91,0.00,,,0.00,weatherlink.com 1.10,2014-01-29 00:19:00,
2014-01-28 19:34:00,9.8,8.0,30.22,NNW,335,4.0,6.0,91,0.00,,,0.00,weatherlink.com 1.10,2014-01-29 00:34:00,
2014-01-28 19:49:00,10.1,8.0,30.22,WNW,301,0.0,4.0,91,0.00,,,0.00,weatherlink.com 1.10,2014-01-29 00:49:00,
2014-01-28 20:04:00,10.3,8.0,30.23,NW,315,3.0,3.0,91,0.00,,,0.00,weatherlink.com 1.10,2014-01-29 01:04:00,
2014-01-28 20:20:00,10.3,8.0,30.23,NNW,330,1.0,3.0,91,0.00,,,0.00,weatherlink.com 1.10,2014-01-29 01:20:00,
2014-01-28 20:35:00,10.2,8.0,30.24,NW,323,0.0,5.0,90,0.00,,,0.00,weatherlink.com 1.10,2014-01-29 01:35:00,
2014-01-28 20:50:00,10.1,8.0,30.24,NNW,345,0.0,4.0,90,0.00,,,0.00,weatherlink.com 1.10,2014-01-29 01:50:00,
2014-01-28 21:05:00,9.8,8.0,30.24,NNW,340,2.0,6.0,90,0.00,,,0.00,weatherlink.com 1.10,2014-01-29 02:05:00,
2014-01-28 21:20:00,9.6,7.0,30.22,NNW,333,1.0,6.0,90,0.00,,,0.00,weatherlink.com 1.10,2014-01-29 02:20:00,
2014-01-28 21:35:00,9.5,7.0,30.22,WNW,293,3.0,7.0,90,0.00,,,0.00,weatherlink.com 1.10,2014-01-29 02:35:00,
2014-01-28 21:50:00,9.1,7.0,30.23,NNW,333,2.0,7.0,90,0.00,,,0.00,weatherlink.com 1.10,2014-01-29 02:50:00,
2014-01-28 22:05:00,9.1,7.0,30.23,WNW,302,2.0,5.0,90,0.00,,,0.00,weatherlink.com 1.10,2014-01-29 03:05:00,
2014-01-28 22:20:00,9.1,7.0,30.23,NNW,337,2.0,6.0,90,0.00,,,0.00,weatherlink.com 1.10,2014-01-29 03:20:00,
2014-01-28 22:35:00,9.4,7.0,30.22,ENE,75,0.0,5.0,90,0.00,,,0.00,weatherlink.com 1.10,2014-01-29 03:35:00,
2014-01-28 22:50:00,9.3,7.0,30.22,NW,315,0.0,3.0,90,0.00,,,0.00,weatherlink.com 1.10,2014-01-29 03:50:00,
2014-01-28 23:05:00,9.3,7.0,30.23,NW,320,0.0,5.0,90,0.00,,,0.00,weatherlink.com 1.10,2014-01-29 04:05:00,
2014-01-28 23:20:00,9.0,6.0,30.22,NW,323,1.0,7.0,89,0.00,,,0.00,weatherlink.com 1.10,2014-01-29 04:20:00,
2014-01-28 23:36:00,8.7,6.0,30.22,NNW,339,6.0,15.0,89,0.00,,,0.00,weatherlink.com 1.10,2014-01-29 04:36:00,
2014-01-28 23:51:00,8.4,6.0,30.22,NW,323,8.0,13.0,89,0.00,,,0.00,weatherlink.com 1.10,2014-01-29 04:51:00,